createdAt,value
2022-09-28T00:02:00.450Z,14.47
2022-09-28T00:04:27.630Z,14.48
2022-09-28T00:06:54.303Z,14.47
2022-09-28T00:12:44.115Z,14.53
2022-09-28T00:15:10.883Z,14.52
2022-09-28T00:17:37.564Z,14.51
2022-09-28T00:20:05.608Z,14.50
2022-09-28T00:22:32.451Z,14.51
2022-09-28T00:24:59.152Z,14.50
2022-09-28T00:27:25.811Z,14.51
2022-09-28T00:29:52.575Z,14.52
2022-09-28T00:32:21.515Z,14.50
2022-09-28T00:34:48.993Z,14.51
2022-09-28T00:37:15.699Z,14.51
2022-09-28T00:39:43.475Z,14.50
2022-09-28T00:42:13.323Z,14.50
2022-09-28T00:45:02.291Z,14.49
2022-09-28T00:47:51.527Z,14.51
2022-09-28T00:50:21.530Z,14.50
2022-09-28T00:53:00.415Z,14.48
2022-09-28T00:55:32.605Z,14.46
2022-09-28T00:58:10.524Z,14.47
2022-09-28T01:00:41.033Z,14.49
2022-09-28T01:03:08.779Z,14.50
2022-09-28T01:05:36.035Z,14.50
2022-09-28T01:08:03.132Z,14.50
2022-09-28T01:10:31.079Z,14.50
2022-09-28T01:12:59.325Z,14.51
2022-09-28T01:15:28.012Z,14.52
2022-09-28T01:18:15.812Z,14.54
2022-09-28T01:20:53.334Z,14.53
2022-09-28T01:23:36.947Z,14.52
2022-09-28T01:26:44.576Z,14.52
2022-09-28T01:29:19.179Z,14.50
2022-09-28T01:31:53.078Z,14.51
2022-09-28T01:34:28.967Z,14.53
2022-09-28T01:36:56.838Z,14.56
2022-09-28T01:39:31.592Z,14.54
2022-09-28T01:42:03.864Z,14.55
2022-09-28T01:44:31.647Z,14.57
2022-09-28T01:47:03.644Z,14.58
2022-09-28T01:49:44.015Z,14.60
2022-09-28T01:52:27.971Z,14.61
2022-09-28T01:55:00.383Z,14.60
2022-09-28T01:57:49.306Z,14.62
2022-09-28T02:00:18.229Z,14.61
2022-09-28T02:02:59.105Z,14.60
2022-09-28T02:05:49.178Z,14.59
2022-09-28T02:08:27.005Z,14.60
2022-09-28T02:11:14.994Z,14.60
2022-09-28T02:13:44.524Z,14.59
2022-09-28T02:16:21.180Z,14.61
2022-09-28T02:18:49.619Z,14.60
2022-09-28T02:21:24.050Z,14.59
2022-09-28T02:24:02.591Z,14.58
2022-09-28T02:26:43.074Z,14.57
2022-09-28T02:29:09.915Z,14.55
2022-09-28T02:31:36.707Z,14.56
2022-09-28T02:34:03.528Z,14.57
2022-09-28T02:36:30.827Z,14.59
2022-09-28T02:38:58.331Z,14.58
2022-09-28T02:41:42.335Z,14.59
2022-09-28T02:44:32.089Z,14.59
2022-09-28T02:47:31.584Z,14.59
2022-09-28T02:50:04.366Z,14.60
2022-09-28T02:53:20.268Z,14.60
2022-09-28T02:55:49.867Z,14.59
2022-09-28T02:58:31.936Z,14.56
2022-09-28T03:01:14.245Z,14.55
2022-09-28T03:03:50.075Z,14.54
2022-09-28T03:06:37.610Z,14.55
2022-09-28T03:09:21.766Z,14.56
2022-09-28T03:11:55.776Z,14.58
2022-09-28T03:14:22.668Z,14.59
2022-09-28T03:16:53.214Z,14.60
2022-09-28T03:19:25.255Z,14.57
2022-09-28T03:21:52.132Z,14.59
2022-09-28T03:24:18.781Z,14.58
2022-09-28T03:26:45.506Z,14.55
2022-09-28T03:29:13.790Z,14.56
2022-09-28T03:31:41.658Z,14.56
2022-09-28T03:34:08.747Z,14.54
2022-09-28T03:36:35.547Z,14.54
2022-09-28T03:39:02.669Z,14.54
2022-09-28T03:41:29.506Z,14.55
2022-09-28T03:43:56.191Z,14.55
2022-09-28T03:46:25.320Z,14.53
2022-09-28T03:48:58.307Z,14.53
2022-09-28T03:51:26.205Z,14.52
2022-09-28T03:53:53.572Z,14.51
2022-09-28T03:56:20.869Z,14.50
2022-09-28T03:58:47.583Z,14.47
2022-09-28T04:01:18.548Z,14.45
2022-09-28T04:03:47.338Z,14.46
2022-09-28T04:06:14.210Z,14.45
2022-09-28T04:08:41.020Z,14.45
2022-09-28T04:11:08.605Z,14.44
2022-09-28T04:13:35.695Z,14.45
2022-09-28T04:16:05.111Z,14.45
2022-09-28T04:18:35.191Z,14.45
2022-09-28T04:21:10.814Z,14.42
2022-09-28T04:23:44.666Z,14.41
2022-09-28T04:26:22.498Z,14.39
2022-09-28T04:29:08.493Z,14.38
2022-09-28T04:31:50.012Z,14.37
2022-09-28T04:34:19.566Z,14.35
2022-09-28T04:36:46.950Z,14.35
2022-09-28T04:39:14.999Z,14.36
2022-09-28T04:41:44.583Z,14.37
2022-09-28T04:44:11.303Z,14.38
2022-09-28T04:46:38.102Z,14.36
2022-09-28T04:49:24.997Z,14.29
2022-09-28T04:52:18.350Z,14.29
2022-09-28T04:54:48.100Z,14.29
2022-09-28T04:57:14.840Z,14.30
2022-09-28T04:59:41.582Z,14.33
2022-09-28T05:02:08.336Z,14.34
2022-09-28T05:05:01.560Z,14.33
2022-09-28T05:07:59.089Z,14.33
2022-09-28T05:10:26.371Z,14.35
2022-09-28T05:12:53.312Z,14.33
2022-09-28T05:15:20.168Z,14.30
2022-09-28T05:17:47.968Z,14.30
2022-09-28T05:20:28.178Z,14.31
2022-09-28T05:22:55.175Z,14.32
2022-09-28T05:25:22.250Z,14.31
2022-09-28T05:28:22.698Z,14.29
2022-09-28T05:31:12.532Z,14.32
2022-09-28T05:33:53.720Z,14.30
2022-09-28T05:36:20.604Z,14.32
2022-09-28T05:38:47.269Z,14.34
2022-09-28T05:41:14.118Z,14.36
2022-09-28T05:43:40.898Z,14.27
2022-09-28T05:46:08.262Z,14.00
2022-09-28T05:48:38.859Z,13.85
2022-09-28T05:51:05.817Z,13.65
2022-09-28T05:53:32.475Z,13.38
2022-09-28T05:55:59.997Z,13.28
2022-09-28T05:58:28.366Z,13.17
2022-09-28T06:00:56.334Z,13.23
2022-09-28T06:03:23.640Z,13.24
2022-09-28T06:05:50.638Z,13.22
2022-09-28T06:08:17.871Z,13.21
2022-09-28T06:10:48.520Z,13.10
2022-09-28T06:13:15.390Z,13.02
2022-09-28T06:15:42.938Z,13.03
2022-09-28T06:18:16.650Z,13.08
2022-09-28T06:21:02.577Z,13.11
2022-09-28T06:23:35.496Z,13.08
2022-09-28T06:26:02.495Z,13.02
2022-09-28T06:28:30.470Z,13.02
2022-09-28T06:30:59.965Z,13.06
2022-09-28T06:33:27.655Z,13.10
2022-09-28T06:35:54.408Z,13.17
2022-09-28T06:38:21.203Z,13.25
2022-09-28T06:40:49.194Z,13.33
2022-09-28T06:43:16.139Z,13.40
2022-09-28T06:46:02.346Z,13.42
2022-09-28T06:48:33.497Z,13.47
2022-09-28T06:51:01.157Z,13.46
2022-09-28T06:53:32.567Z,13.51
2022-09-28T06:56:11.060Z,13.55
2022-09-28T06:58:37.884Z,13.58
2022-09-28T07:01:05.816Z,13.55
2022-09-28T07:03:47.612Z,13.49
2022-09-28T07:06:33.901Z,13.56
2022-09-28T07:09:32.303Z,13.55
2022-09-28T07:12:19.519Z,13.59
2022-09-28T07:14:57.357Z,13.63
2022-09-28T07:17:26.673Z,13.68
2022-09-28T07:20:00.767Z,13.73
2022-09-28T07:22:40.620Z,13.71
2022-09-28T07:25:09.431Z,13.80
2022-09-28T07:28:03.392Z,14.08
2022-09-28T07:30:50.133Z,14.09
2022-09-28T07:33:39.900Z,14.00
2022-09-28T07:36:29.919Z,14.11
2022-09-28T07:38:57.735Z,14.23
2022-09-28T07:41:32.661Z,14.42
2022-09-28T07:44:08.267Z,14.58
2022-09-28T07:46:37.141Z,14.69
2022-09-28T07:49:11.612Z,14.49
2022-09-28T07:52:14.775Z,14.32
2022-09-28T07:55:07.280Z,14.33
2022-09-28T07:58:03.279Z,14.41
2022-09-28T08:01:10.718Z,14.54
2022-09-28T08:03:39.465Z,14.59
2022-09-28T08:06:09.844Z,14.57
2022-09-28T08:08:37.925Z,14.58
2022-09-28T08:11:07.306Z,14.50
2022-09-28T08:13:46.462Z,14.30
2022-09-28T08:16:35.100Z,14.28
2022-09-28T08:19:11.894Z,14.21
2022-09-28T08:21:47.471Z,14.20
2022-09-28T08:24:15.700Z,14.30
2022-09-28T08:26:43.538Z,14.32
2022-09-28T08:29:11.719Z,14.37
2022-09-28T08:31:48.303Z,14.47
2022-09-28T08:34:28.137Z,14.55
2022-09-28T08:37:15.063Z,14.66
2022-09-28T08:40:00.952Z,14.62
2022-09-28T08:42:40.921Z,14.59
2022-09-28T08:45:35.977Z,14.56
2022-09-28T08:49:06.623Z,14.61
2022-09-28T08:52:13.775Z,14.74
2022-09-28T08:55:00.849Z,14.80
2022-09-28T08:57:49.661Z,14.70
2022-09-28T09:00:31.056Z,14.57
2022-09-28T09:02:58.176Z,14.54
2022-09-28T09:05:51.999Z,14.45
2022-09-28T09:09:00.086Z,14.57
2022-09-28T09:11:51.564Z,14.52
2022-09-28T09:14:34.444Z,14.47
2022-09-28T09:17:19.036Z,14.42
2022-09-28T09:20:20.550Z,14.46
2022-09-28T09:22:58.911Z,14.70
2022-09-28T09:25:40.221Z,15.00
2022-09-28T09:28:11.673Z,15.37
2022-09-28T09:31:13.276Z,15.73
2022-09-28T09:34:01.375Z,15.91
2022-09-28T09:37:05.428Z,16.06
2022-09-28T09:40:26.469Z,16.18
2022-09-28T09:43:31.773Z,16.43
2022-09-28T09:46:25.507Z,16.45
2022-09-28T09:49:25.169Z,16.56
2022-09-28T09:51:51.908Z,16.67
2022-09-28T09:54:21.550Z,16.76
2022-09-28T09:57:01.556Z,16.79
2022-09-28T09:59:48.423Z,16.86
2022-09-28T10:02:26.930Z,17.00
2022-09-28T10:05:07.556Z,17.17
2022-09-28T10:07:43.282Z,17.24
2022-09-28T10:10:32.245Z,17.18
2022-09-28T10:13:16.144Z,17.18
2022-09-28T10:15:47.517Z,16.86
2022-09-28T10:18:29.869Z,16.50
2022-09-28T10:21:17.828Z,16.47
2022-09-28T10:24:02.679Z,16.45
2022-09-28T10:26:36.253Z,16.38
2022-09-28T10:29:12.080Z,16.27
2022-09-28T10:31:40.171Z,16.36
2022-09-28T10:34:17.346Z,16.51
2022-09-28T10:37:04.079Z,16.69
2022-09-28T10:39:56.075Z,16.89
2022-09-28T10:42:30.538Z,16.99
2022-09-28T10:45:25.868Z,16.91
2022-09-28T10:47:52.646Z,16.81
2022-09-28T10:50:25.912Z,16.69
2022-09-28T10:53:10.542Z,16.82
2022-09-28T10:56:23.422Z,16.79
2022-09-28T10:59:02.592Z,16.82
2022-09-28T11:01:42.997Z,16.94
2022-09-28T11:04:20.980Z,17.09
2022-09-28T11:06:47.979Z,17.21
2022-09-28T11:09:45.469Z,17.23
2022-09-28T11:12:16.244Z,17.33
2022-09-28T11:14:44.276Z,17.34
2022-09-28T11:17:31.518Z,17.24
2022-09-28T11:20:00.688Z,17.15
2022-09-28T11:22:29.939Z,16.95
2022-09-28T11:25:24.128Z,16.69
2022-09-28T11:27:50.882Z,16.58
2022-09-28T11:30:24.335Z,16.61
2022-09-28T11:33:36.243Z,16.69
2022-09-28T11:36:42.229Z,16.93
2022-09-28T11:39:27.614Z,17.22
2022-09-28T11:42:11.001Z,17.27
2022-09-28T11:44:47.390Z,17.15
2022-09-28T11:47:36.563Z,17.24
2022-09-28T11:50:24.627Z,17.20
2022-09-28T11:53:09.812Z,17.29
2022-09-28T11:56:10.071Z,17.50
2022-09-28T11:58:44.058Z,17.65
2022-09-28T12:01:47.233Z,17.61
2022-09-28T12:04:34.113Z,17.45
2022-09-28T12:07:08.486Z,17.20
2022-09-28T12:09:46.871Z,17.08
2022-09-28T12:12:25.340Z,17.18
2022-09-28T12:14:57.472Z,17.24
2022-09-28T12:17:34.248Z,17.27
2022-09-28T12:20:14.703Z,17.10
2022-09-28T12:22:43.380Z,17.16
2022-09-28T12:25:14.522Z,16.87
2022-09-28T12:27:46.843Z,16.65
2022-09-28T12:30:20.841Z,16.43
2022-09-28T12:33:17.827Z,16.49
2022-09-28T12:35:47.475Z,16.61
2022-09-28T12:38:35.507Z,16.47
2022-09-28T12:41:23.791Z,16.55
2022-09-28T12:43:55.306Z,16.66
2022-09-28T12:46:46.566Z,16.81
2022-09-28T12:52:19.193Z,17.10
2022-09-28T12:55:01.215Z,17.19
2022-09-28T12:57:57.674Z,17.26
2022-09-28T13:00:29.243Z,17.27
2022-09-28T13:03:32.783Z,17.46
2022-09-28T13:06:14.247Z,17.64
2022-09-28T13:08:55.969Z,17.68
2022-09-28T13:11:38.104Z,17.58
2022-09-28T13:14:42.224Z,17.42
2022-09-28T13:17:27.903Z,17.33
2022-09-28T13:19:59.445Z,17.25
2022-09-28T13:22:39.948Z,17.15
2022-09-28T13:25:17.105Z,17.09
2022-09-28T13:27:52.800Z,17.06
2022-09-28T13:30:19.607Z,17.01
2022-09-28T13:32:47.767Z,16.94
2022-09-28T13:35:16.309Z,16.89
2022-09-28T13:37:43.115Z,16.92
2022-09-28T13:40:10.023Z,16.89
2022-09-28T13:42:46.342Z,16.82
2022-09-28T13:45:22.304Z,16.92
2022-09-28T13:48:11.887Z,17.18
2022-09-28T13:51:16.334Z,17.35
2022-09-28T13:53:43.076Z,17.44
2022-09-28T13:56:28.250Z,17.45
2022-09-28T13:59:16.837Z,17.43
2022-09-28T14:02:13.975Z,17.50
2022-09-28T14:05:01.043Z,17.50
2022-09-28T14:07:33.753Z,17.66
2022-09-28T14:10:19.335Z,17.64
2022-09-28T14:12:48.379Z,17.49
2022-09-28T14:15:40.372Z,17.62
2022-09-28T14:18:15.527Z,17.76
2022-09-28T14:20:50.907Z,17.84
2022-09-28T14:23:41.199Z,17.86
2022-09-28T14:26:20.982Z,17.70
2022-09-28T14:29:10.232Z,17.59
2022-09-28T14:31:42.367Z,17.55
2022-09-28T14:34:23.943Z,17.47
2022-09-28T14:37:09.423Z,17.51
2022-09-28T14:39:55.737Z,17.66
2022-09-28T14:42:25.153Z,17.80
2022-09-28T14:45:19.059Z,17.89
2022-09-28T14:48:43.229Z,18.04
2022-09-28T14:51:42.383Z,18.05
2022-09-28T14:54:10.693Z,17.75
2022-09-28T14:56:44.641Z,17.29
2022-09-28T14:59:16.955Z,16.95
2022-09-28T15:01:48.090Z,16.87
2022-09-28T15:04:15.296Z,16.85
2022-09-28T15:06:46.995Z,16.75
2022-09-28T15:09:47.856Z,16.78
2022-09-28T15:12:32.637Z,16.90
2022-09-28T15:14:59.345Z,16.94
2022-09-28T15:17:29.755Z,16.95
2022-09-28T15:20:03.133Z,17.03
2022-09-28T15:22:30.335Z,17.11
2022-09-28T15:25:02.452Z,17.37
2022-09-28T15:27:37.257Z,17.60
2022-09-28T15:30:18.947Z,17.95
2022-09-28T15:32:45.731Z,17.73
2022-09-28T15:35:17.175Z,17.60
2022-09-28T15:37:44.880Z,17.67
2022-09-28T15:40:16.797Z,17.53
2022-09-28T15:42:45.332Z,17.54
2022-09-28T15:45:14.862Z,17.55
2022-09-28T15:47:44.952Z,17.45
2022-09-28T15:50:24.104Z,17.26
2022-09-28T15:52:59.371Z,17.00
2022-09-28T15:55:32.907Z,16.88
2022-09-28T15:58:19.313Z,16.82
2022-09-28T16:00:47.484Z,16.70
2022-09-28T16:03:17.232Z,16.58
2022-09-28T16:06:06.562Z,16.58
2022-09-28T16:08:36.291Z,16.64
2022-09-28T16:11:24.270Z,16.54
2022-09-28T16:14:06.344Z,16.27
2022-09-28T16:16:41.172Z,16.01
2022-09-28T16:19:24.087Z,15.85
2022-09-28T16:21:59.917Z,15.68
2022-09-28T16:24:30.411Z,15.45
2022-09-28T16:26:58.536Z,15.33
2022-09-28T16:29:39.730Z,15.23
2022-09-28T16:32:25.008Z,15.19
2022-09-28T16:35:07.430Z,15.17
2022-09-28T16:37:34.368Z,15.07
2022-09-28T16:40:01.234Z,14.91
2022-09-28T16:42:28.315Z,14.71
2022-09-28T16:44:56.399Z,14.57
2022-09-28T16:47:23.667Z,14.42
2022-09-28T16:49:51.862Z,14.33
2022-09-28T16:52:38.844Z,14.25
2022-09-28T16:58:04.996Z,14.29
2022-09-28T17:00:31.906Z,14.28
2022-09-28T17:02:58.785Z,14.20
2022-09-28T17:05:25.618Z,14.10
2022-09-28T17:08:00.356Z,14.05
2022-09-28T17:11:12.596Z,14.00
2022-09-28T17:13:34.823Z,13.88
2022-09-28T17:16:06.240Z,13.78
2022-09-28T17:18:33.098Z,13.68
2022-09-28T17:21:04.340Z,13.56
2022-09-28T17:23:31.075Z,13.51
2022-09-28T17:25:59.150Z,13.43
2022-09-28T17:28:28.339Z,13.30
2022-09-28T17:30:55.069Z,13.24
2022-09-28T17:33:21.743Z,13.16
2022-09-28T17:35:49.597Z,13.03
2022-09-28T17:38:16.397Z,12.92
2022-09-28T17:40:44.049Z,12.80
2022-09-28T17:43:11.338Z,12.80
2022-09-28T17:45:41.711Z,12.95
2022-09-28T17:48:17.349Z,13.14
2022-09-28T17:50:46.639Z,13.30
2022-09-28T17:53:13.891Z,13.44
2022-09-28T17:55:40.962Z,13.56
2022-09-28T17:58:18.223Z,13.65
2022-09-28T18:00:50.791Z,13.75
2022-09-28T18:03:20.037Z,13.84
2022-09-28T18:05:49.705Z,13.92
2022-09-28T18:08:21.091Z,13.99
2022-09-28T18:10:47.902Z,14.04
2022-09-28T18:13:14.828Z,14.09
2022-09-28T18:15:42.365Z,14.14
2022-09-28T18:18:09.871Z,14.18
2022-09-28T18:20:37.135Z,14.21
2022-09-28T18:23:04.401Z,14.24
2022-09-28T18:25:31.432Z,14.26
2022-09-28T18:28:02.535Z,14.29
2022-09-28T18:30:29.432Z,14.31
2022-09-28T18:32:56.152Z,14.33
2022-09-28T18:35:23.467Z,14.34
2022-09-28T18:37:50.599Z,14.33
2022-09-28T18:40:17.529Z,14.37
2022-09-28T18:42:44.267Z,14.37
2022-09-28T18:45:11.502Z,14.37
2022-09-28T18:47:39.059Z,14.37
2022-09-28T18:50:06.622Z,14.38
2022-09-28T18:52:36.679Z,14.38
2022-09-28T18:55:04.258Z,14.40
2022-09-28T18:57:34.332Z,14.38
2022-09-28T19:00:05.009Z,14.38
2022-09-28T19:02:32.700Z,14.37
2022-09-28T19:04:59.432Z,14.37
2022-09-28T19:07:26.468Z,14.35
2022-09-28T19:09:57.385Z,14.34
2022-09-28T19:12:24.267Z,14.33
2022-09-28T19:14:50.979Z,14.33
2022-09-28T19:17:18.184Z,14.31
2022-09-28T19:19:45.153Z,14.32
2022-09-28T19:22:12.610Z,14.31
2022-09-28T19:24:39.257Z,14.30
2022-09-28T19:27:05.982Z,14.30
2022-09-28T19:29:32.652Z,14.30
2022-09-28T19:31:59.791Z,14.28
2022-09-28T19:34:30.122Z,14.28
2022-09-28T19:36:57.253Z,14.36
2022-09-28T19:39:23.999Z,14.30
2022-09-28T19:41:54.331Z,14.26
2022-09-28T19:44:25.453Z,14.25
2022-09-28T19:47:00.014Z,14.22
2022-09-28T19:49:27.805Z,14.22
2022-09-28T19:52:13.902Z,14.19
2022-09-28T19:54:57.924Z,14.20
2022-09-28T19:57:27.696Z,14.18
2022-09-28T19:59:59.251Z,14.19
2022-09-28T20:02:27.955Z,14.18
2022-09-28T20:04:54.649Z,14.18
2022-09-28T20:07:21.380Z,14.18
2022-09-28T20:09:48.084Z,14.18
2022-09-28T20:12:14.855Z,14.18
2022-09-28T20:14:41.973Z,14.19
2022-09-28T20:17:09.742Z,14.18
2022-09-28T20:19:36.387Z,14.20
2022-09-28T20:22:03.545Z,14.19
2022-09-28T20:24:32.102Z,14.19
2022-09-28T20:26:59.204Z,14.20
2022-09-28T20:29:26.786Z,14.21
2022-09-28T20:31:53.529Z,14.21
2022-09-28T20:34:20.434Z,14.20
2022-09-28T20:36:48.286Z,14.21
2022-09-28T20:39:15.293Z,14.22
2022-09-28T20:41:42.357Z,14.24
2022-09-28T20:44:09.882Z,14.23
2022-09-28T20:46:37.113Z,14.25
2022-09-28T20:49:05.490Z,14.25
2022-09-28T20:51:32.520Z,14.24
2022-09-28T20:54:00.196Z,14.22
2022-09-28T20:56:37.455Z,14.24
2022-09-28T20:59:08.356Z,14.23
2022-09-28T21:01:35.294Z,14.23
2022-09-28T21:04:04.204Z,14.22
2022-09-28T21:06:35.614Z,14.21
2022-09-28T21:09:02.638Z,14.21
2022-09-28T21:11:29.778Z,14.20
2022-09-28T21:13:58.611Z,14.16
2022-09-28T21:16:26.502Z,14.18
2022-09-28T21:18:53.652Z,14.15
2022-09-28T21:21:21.517Z,14.15
2022-09-28T21:23:52.457Z,14.15
2022-09-28T21:26:27.218Z,14.13
2022-09-28T21:28:55.543Z,14.12
2022-09-28T21:31:28.450Z,14.09
2022-09-28T21:33:59.132Z,14.08
2022-09-28T21:36:26.123Z,14.09
2022-09-28T21:38:55.080Z,14.06
2022-09-28T21:41:22.399Z,14.05
2022-09-28T21:43:49.030Z,14.04
2022-09-28T21:46:17.536Z,14.00
2022-09-28T21:48:44.526Z,13.99
2022-09-28T21:51:14.033Z,13.96
2022-09-28T21:53:40.907Z,13.95
2022-09-28T21:56:09.621Z,13.93
2022-09-28T21:58:36.739Z,13.91
2022-09-28T22:01:18.064Z,13.87
2022-09-28T22:03:54.069Z,13.86
2022-09-28T22:06:22.427Z,13.82
2022-09-28T22:08:49.580Z,13.79
2022-09-28T22:11:21.725Z,13.77
2022-09-28T22:13:50.629Z,13.75
2022-09-28T22:16:18.521Z,13.72
2022-09-28T22:18:46.022Z,13.69
2022-09-28T22:21:15.352Z,13.65
2022-09-28T22:23:42.106Z,13.63
2022-09-28T22:26:12.596Z,13.59
2022-09-28T22:28:44.204Z,13.57
2022-09-28T22:31:11.034Z,13.55
2022-09-28T22:33:37.771Z,13.50
2022-09-28T22:36:04.642Z,13.46
2022-09-28T22:38:32.157Z,13.42
2022-09-28T22:40:59.001Z,13.41
2022-09-28T22:43:26.555Z,13.37
2022-09-28T22:46:03.776Z,13.32
2022-09-28T22:48:30.963Z,13.30
2022-09-28T22:50:57.860Z,13.28
2022-09-28T22:53:24.846Z,13.25
2022-09-28T22:55:51.505Z,13.23
2022-09-28T22:58:18.183Z,13.21
2022-09-28T23:00:44.857Z,13.16
2022-09-28T23:03:11.684Z,13.15
2022-09-28T23:05:38.343Z,13.13
2022-09-28T23:08:05.066Z,13.09
2022-09-28T23:10:31.778Z,13.05
2022-09-28T23:12:58.852Z,13.02
2022-09-28T23:15:26.203Z,12.99
2022-09-28T23:17:53.332Z,12.97
2022-09-28T23:20:21.034Z,12.94
2022-09-28T23:22:48.412Z,12.91
2022-09-28T23:25:16.336Z,12.90
2022-09-28T23:27:49.929Z,12.85
2022-09-28T23:30:18.565Z,12.83
2022-09-28T23:32:45.712Z,12.81
2022-09-28T23:35:14.158Z,12.77
2022-09-28T23:37:40.795Z,12.74
2022-09-28T23:40:07.931Z,12.71
2022-09-28T23:42:35.529Z,12.70
2022-09-28T23:45:02.268Z,12.68
2022-09-28T23:47:28.871Z,12.64
2022-09-28T23:49:55.598Z,12.62
2022-09-28T23:52:22.803Z,12.57
2022-09-28T23:54:49.543Z,12.54
2022-09-28T23:57:16.239Z,12.52
2022-09-28T23:59:42.894Z,12.52
